sensor_id;sensor_type;location;lat;lon;timestamp;pressure;altitude;pressure_sealevel;temperature;humidity
19023;BME280;35226;48.606;8.858;2023-04-21T00:01:10;95888.47;;;4.26;100.00
19023;BME280;35226;48.606;8.858;2023-04-21T00:03:37;95887.34;;;4.23;100.00
19023;BME280;35226;48.606;8.858;2023-04-21T00:06:06;95890.03;;;4.27;100.00
19023;BME280;35226;48.606;8.858;2023-04-21T00:08:34;95888.97;;;4.21;100.00
19023;BME280;35226;48.606;8.858;2023-04-21T00:11:05;95888.59;;;4.19;100.00
19023;BME280;35226;48.606;8.858;2023-04-21T00:13:32;95884.34;;;4.14;100.00
19023;BME280;35226;48.606;8.858;2023-04-21T00:15:58;95879.72;;;4.11;100.00
19023;BME280;35226;48.606;8.858;2023-04-21T00:18:23;95887.16;;;4.11;100.00
19023;BME280;35226;48.606;8.858;2023-04-21T00:20:49;95873.91;;;4.05;100.00
19023;BME280;35226;48.606;8.858;2023-04-21T00:23:15;95862.97;;;4.05;100.00
19023;BME280;35226;48.606;8.858;2023-04-21T00:25:40;95864.66;;;3.99;100.00
19023;BME280;35226;48.606;8.858;2023-04-21T00:28:06;95858.00;;;4.00;100.00
19023;BME280;35226;48.606;8.858;2023-04-21T00:30:36;95859.22;;;3.96;100.00
19023;BME280;35226;48.606;8.858;2023-04-21T00:33:03;95856.06;;;3.97;100.00
19023;BME280;35226;48.606;8.858;2023-04-21T00:35:28;95848.38;;;3.89;100.00
19023;BME280;35226;48.606;8.858;2023-04-21T00:37:55;95840.22;;;3.85;100.00
19023;BME280;35226;48.606;8.858;2023-04-21T00:40:20;95855.84;;;3.85;100.00
19023;BME280;35226;48.606;8.858;2023-04-21T00:42:46;95853.09;;;3.85;100.00
19023;BME280;35226;48.606;8.858;2023-04-21T00:45:11;95856.31;;;3.80;100.00
19023;BME280;35226;48.606;8.858;2023-04-21T00:47:40;95854.03;;;3.75;100.00
19023;BME280;35226;48.606;8.858;2023-04-21T00:50:05;95861.13;;;3.68;100.00
19023;BME280;35226;48.606;8.858;2023-04-21T00:52:32;95849.84;;;3.66;100.00
19023;BME280;35226;48.606;8.858;2023-04-21T00:55:03;95853.44;;;3.60;100.00
19023;BME280;35226;48.606;8.858;2023-04-21T00:57:30;95842.16;;;3.54;100.00
19023;BME280;35226;48.606;8.858;2023-04-21T00:59:56;95851.50;;;3.57;100.00
19023;BME280;35226;48.606;8.858;2023-04-21T01:02:23;95848.88;;;3.50;100.00
19023;BME280;35226;48.606;8.858;2023-04-21T01:04:49;95845.41;;;3.46;100.00
19023;BME280;35226;48.606;8.858;2023-04-21T01:07:14;95851.59;;;3.50;100.00
19023;BME280;35226;48.606;8.858;2023-04-21T01:09:40;95846.97;;;3.43;100.00
19023;BME280;35226;48.606;8.858;2023-04-21T01:12:07;95849.38;;;3.41;100.00
19023;BME280;35226;48.606;8.858;2023-04-21T01:14:37;95848.59;;;3.41;100.00
19023;BME280;35226;48.606;8.858;2023-04-21T01:17:03;95849.03;;;3.35;100.00
19023;BME280;35226;48.606;8.858;2023-04-21T01:19:39;95849.84;;;3.32;100.00
19023;BME280;35226;48.606;8.858;2023-04-21T01:22:10;95859.66;;;3.26;100.00
19023;BME280;35226;48.606;8.858;2023-04-21T01:24:43;95851.84;;;3.28;100.00
19023;BME280;35226;48.606;8.858;2023-04-21T01:27:17;95856.13;;;3.29;100.00
19023;BME280;35226;48.606;8.858;2023-04-21T01:29:44;95859.28;;;3.24;100.00
19023;BME280;35226;48.606;8.858;2023-04-21T01:32:14;95853.03;;;3.24;100.00
19023;BME280;35226;48.606;8.858;2023-04-21T01:34:40;95855.38;;;3.25;100.00
19023;BME280;35226;48.606;8.858;2023-04-21T01:37:07;95853.09;;;3.20;100.00
19023;BME280;35226;48.606;8.858;2023-04-21T01:39:40;95857.00;;;3.19;100.00
19023;BME280;35226;48.606;8.858;2023-04-21T01:42:06;95858.22;;;3.15;100.00
19023;BME280;35226;48.606;8.858;2023-04-21T01:44:31;95861.41;;;3.10;100.00
19023;BME280;35226;48.606;8.858;2023-04-21T01:46:57;95862.56;;;3.12;100.00
19023;BME280;35226;48.606;8.858;2023-04-21T01:49:23;95857.13;;;3.09;100.00
19023;BME280;35226;48.606;8.858;2023-04-21T01:51:48;95856.72;;;3.10;100.00
19023;BME280;35226;48.606;8.858;2023-04-21T01:54:14;95864.13;;;3.10;100.00
19023;BME280;35226;48.606;8.858;2023-04-21T01:56:39;95859.09;;;3.05;100.00
19023;BME280;35226;48.606;8.858;2023-04-21T01:59:05;95861.50;;;2.99;100.00
19023;BME280;35226;48.606;8.858;2023-04-21T02:01:31;95863.44;;;2.98;100.00
19023;BME280;35226;48.606;8.858;2023-04-21T02:03:56;95872.41;;;2.99;100.00
19023;BME280;35226;48.606;8.858;2023-04-21T02:06:22;95880.88;;;3.12;100.00
19023;BME280;35226;48.606;8.858;2023-04-21T02:08:47;95873.13;;;3.07;100.00
19023;BME280;35226;48.606;8.858;2023-04-21T02:11:13;95869.97;;;3.08;100.00
19023;BME280;35226;48.606;8.858;2023-04-21T02:13:39;95878.09;;;3.15;100.00
19023;BME280;35226;48.606;8.858;2023-04-21T02:16:05;95881.19;;;3.21;100.00
19023;BME280;35226;48.606;8.858;2023-04-21T02:18:31;95879.94;;;3.25;100.00
19023;BME280;35226;48.606;8.858;2023-04-21T02:20:56;95875.22;;;3.29;100.00
19023;BME280;35226;48.606;8.858;2023-04-21T02:23:22;95878.34;;;3.31;100.00
19023;BME280;35226;48.606;8.858;2023-04-21T02:25:48;95886.94;;;3.30;100.00
19023;BME280;35226;48.606;8.858;2023-04-21T02:28:13;95883.75;;;3.35;100.00
19023;BME280;35226;48.606;8.858;2023-04-21T02:30:39;95873.97;;;3.38;100.00
19023;BME280;35226;48.606;8.858;2023-04-21T02:33:05;95873.59;;;3.35;100.00
19023;BME280;35226;48.606;8.858;2023-04-21T02:35:30;95871.25;;;3.34;100.00
19023;BME280;35226;48.606;8.858;2023-04-21T02:37:58;95875.91;;;3.37;100.00
19023;BME280;35226;48.606;8.858;2023-04-21T02:40:23;95879.50;;;3.30;100.00
19023;BME280;35226;48.606;8.858;2023-04-21T02:42:50;95873.66;;;3.32;100.00
19023;BME280;35226;48.606;8.858;2023-04-21T02:45:16;95872.81;;;3.35;100.00
19023;BME280;35226;48.606;8.858;2023-04-21T02:47:41;95876.69;;;3.38;100.00
19023;BME280;35226;48.606;8.858;2023-04-21T02:50:07;95875.19;;;3.33;100.00
19023;BME280;35226;48.606;8.858;2023-04-21T02:52:37;95871.25;;;3.38;100.00
19023;BME280;35226;48.606;8.858;2023-04-21T02:55:03;95877.47;;;3.38;100.00
19023;BME280;35226;48.606;8.858;2023-04-21T02:57:29;95871.25;;;3.34;100.00
19023;BME280;35226;48.606;8.858;2023-04-21T02:59:54;95869.31;;;3.34;100.00
19023;BME280;35226;48.606;8.858;2023-04-21T03:02:20;95866.25;;;3.32;100.00
19023;BME280;35226;48.606;8.858;2023-04-21T03:04:45;95863.06;;;3.34;100.00
19023;BME280;35226;48.606;8.858;2023-04-21T03:07:12;95853.78;;;3.28;100.00
19023;BME280;35226;48.606;8.858;2023-04-21T03:09:38;95848.84;;;3.16;100.00
19023;BME280;35226;48.606;8.858;2023-04-21T03:12:04;95849.34;;;3.04;100.00
19023;BME280;35226;48.606;8.858;2023-04-21T03:14:29;95845.44;;;3.05;100.00
19023;BME280;35226;48.606;8.858;2023-04-21T03:16:55;95850.56;;;3.03;100.00
19023;BME280;35226;48.606;8.858;2023-04-21T03:19:21;95850.97;;;3.01;100.00
19023;BME280;35226;48.606;8.858;2023-04-21T03:21:46;95847.47;;;2.97;100.00
19023;BME280;35226;48.606;8.858;2023-04-21T03:24:12;95844.03;;;2.93;100.00
19023;BME280;35226;48.606;8.858;2023-04-21T03:26:38;95836.66;;;2.90;100.00
19023;BME280;35226;48.606;8.858;2023-04-21T03:29:05;95831.28;;;2.79;100.00
19023;BME280;35226;48.606;8.858;2023-04-21T03:31:31;95837.91;;;2.78;100.00
19023;BME280;35226;48.606;8.858;2023-04-21T03:33:56;95840.25;;;2.76;100.00
19023;BME280;35226;48.606;8.858;2023-04-21T03:36:22;95832.91;;;2.73;100.00
19023;BME280;35226;48.606;8.858;2023-04-21T03:38:48;95844.16;;;2.75;100.00
19023;BME280;35226;48.606;8.858;2023-04-21T03:41:13;95842.75;;;2.64;100.00
19023;BME280;35226;48.606;8.858;2023-04-21T03:43:39;95846.19;;;2.68;100.00
19023;BME280;35226;48.606;8.858;2023-04-21T03:46:04;95849.31;;;2.66;100.00
19023;BME280;35226;48.606;8.858;2023-04-21T03:48:30;95840.44;;;2.55;100.00
19023;BME280;35226;48.606;8.858;2023-04-21T03:50:56;95842.44;;;2.54;100.00
19023;BME280;35226;48.606;8.858;2023-04-21T03:53:22;95847.09;;;2.54;100.00
19023;BME280;35226;48.606;8.858;2023-04-21T03:55:49;95842.38;;;2.58;100.00
19023;BME280;35226;48.606;8.858;2023-04-21T03:58:15;95842.00;;;2.56;100.00
19023;BME280;35226;48.606;8.858;2023-04-21T04:00:41;95836.53;;;2.59;100.00
19023;BME280;35226;48.606;8.858;2023-04-21T04:03:06;95838.09;;;2.60;100.00
19023;BME280;35226;48.606;8.858;2023-04-21T04:05:32;95839.22;;;2.63;100.00
19023;BME280;35226;48.606;8.858;2023-04-21T04:07:59;95844.25;;;2.65;100.00
19023;BME280;35226;48.606;8.858;2023-04-21T04:10:24;95849.72;;;2.65;100.00
19023;BME280;35226;48.606;8.858;2023-04-21T04:12:50;95845.78;;;2.69;100.00
19023;BME280;35226;48.606;8.858;2023-04-21T04:15:15;95842.63;;;2.74;100.00
19023;BME280;35226;48.606;8.858;2023-04-21T04:17:41;95846.94;;;2.72;100.00
19023;BME280;35226;48.606;8.858;2023-04-21T04:20:07;95846.97;;;2.68;100.00
19023;BME280;35226;48.606;8.858;2023-04-21T04:22:33;95849.38;;;2.59;100.00
19023;BME280;35226;48.606;8.858;2023-04-21T04:24:59;95855.16;;;2.65;100.00
19023;BME280;35226;48.606;8.858;2023-04-21T04:27:26;95853.19;;;2.69;100.00
19023;BME280;35226;48.606;8.858;2023-04-21T04:29:52;95851.66;;;2.68;100.00
19023;BME280;35226;48.606;8.858;2023-04-21T04:32:17;95857.50;;;2.66;100.00
19023;BME280;35226;48.606;8.858;2023-04-21T04:34:44;95854.41;;;2.64;100.00
19023;BME280;35226;48.606;8.858;2023-04-21T04:37:09;95859.81;;;2.68;100.00
19023;BME280;35226;48.606;8.858;2023-04-21T04:39:35;95857.09;;;2.68;100.00
19023;BME280;35226;48.606;8.858;2023-04-21T04:42:01;95853.66;;;2.64;100.00
19023;BME280;35226;48.606;8.858;2023-04-21T04:44:28;95859.44;;;2.66;100.00
19023;BME280;35226;48.606;8.858;2023-04-21T04:46:54;95863.34;;;2.68;100.00
19023;BME280;35226;48.606;8.858;2023-04-21T04:49:21;95855.91;;;2.72;100.00
19023;BME280;35226;48.606;8.858;2023-04-21T04:51:46;95862.13;;;2.73;100.00
19023;BME280;35226;48.606;8.858;2023-04-21T04:54:12;95871.09;;;2.73;100.00
19023;BME280;35226;48.606;8.858;2023-04-21T04:56:37;95873.75;;;2.80;100.00
19023;BME280;35226;48.606;8.858;2023-04-21T04:59:03;95866.75;;;2.79;100.00
19023;BME280;35226;48.606;8.858;2023-04-21T05:01:29;95876.88;;;2.79;100.00
19023;BME280;35226;48.606;8.858;2023-04-21T05:03:55;95877.69;;;2.76;100.00
19023;BME280;35226;48.606;8.858;2023-04-21T05:06:22;95878.75;;;2.85;100.00
19023;BME280;35226;48.606;8.858;2023-04-21T05:08:47;95883.50;;;2.81;100.00
19023;BME280;35226;48.606;8.858;2023-04-21T05:11:13;95884.56;;;2.91;100.00
19023;BME280;35226;48.606;8.858;2023-04-21T05:13:38;95881.88;;;2.87;100.00
19023;BME280;35226;48.606;8.858;2023-04-21T05:16:04;95880.75;;;2.81;100.00
19023;BME280;35226;48.606;8.858;2023-04-21T05:18:30;95882.09;;;2.63;100.00
19023;BME280;35226;48.606;8.858;2023-04-21T05:20:56;95885.41;;;2.84;100.00
19023;BME280;35226;48.606;8.858;2023-04-21T05:23:21;95890.03;;;2.91;100.00
19023;BME280;35226;48.606;8.858;2023-04-21T05:25:47;95886.81;;;3.03;100.00
19023;BME280;35226;48.606;8.858;2023-04-21T05:28:12;95894.25;;;2.95;100.00
19023;BME280;35226;48.606;8.858;2023-04-21T05:30:39;95893.88;;;2.97;100.00
19023;BME280;35226;48.606;8.858;2023-04-21T05:33:05;95895.03;;;3.00;100.00
19023;BME280;35226;48.606;8.858;2023-04-21T05:35:30;95905.13;;;3.03;100.00
19023;BME280;35226;48.606;8.858;2023-04-21T05:37:56;95899.25;;;3.04;100.00
19023;BME280;35226;48.606;8.858;2023-04-21T05:40:22;95899.69;;;2.99;100.00
19023;BME280;35226;48.606;8.858;2023-04-21T05:42:47;95910.16;;;3.04;100.00
19023;BME280;35226;48.606;8.858;2023-04-21T05:45:13;95904.28;;;3.09;100.00
19023;BME280;35226;48.606;8.858;2023-04-21T05:47:38;95909.75;;;3.09;100.00
19023;BME280;35226;48.606;8.858;2023-04-21T05:50:05;95909.75;;;3.06;100.00
19023;BME280;35226;48.606;8.858;2023-04-21T05:52:31;95903.53;;;3.05;100.00
19023;BME280;35226;48.606;8.858;2023-04-21T05:54:57;95897.66;;;3.10;100.00
19023;BME280;35226;48.606;8.858;2023-04-21T05:57:25;95893.69;;;3.15;100.00
19023;BME280;35226;48.606;8.858;2023-04-21T05:59:51;95892.91;;;3.14;100.00
19023;BME280;35226;48.606;8.858;2023-04-21T06:02:17;95890.56;;;3.16;100.00
19023;BME280;35226;48.606;8.858;2023-04-21T06:04:43;95888.22;;;3.15;100.00
19023;BME280;35226;48.606;8.858;2023-04-21T06:07:09;95885.47;;;3.18;100.00
19023;BME280;35226;48.606;8.858;2023-04-21T06:09:38;95888.22;;;3.15;100.00
19023;BME280;35226;48.606;8.858;2023-04-21T06:12:04;95887.81;;;3.20;100.00
19023;BME280;35226;48.606;8.858;2023-04-21T06:14:30;95889.75;;;3.19;100.00
19023;BME280;35226;48.606;8.858;2023-04-21T06:16:56;95891.72;;;3.19;100.00
19023;BME280;35226;48.606;8.858;2023-04-21T06:19:22;95890.94;;;3.18;100.00
19023;BME280;35226;48.606;8.858;2023-04-21T06:21:47;95880.34;;;3.24;100.00
19023;BME280;35226;48.606;8.858;2023-04-21T06:24:13;95887.81;;;3.20;100.00
19023;BME280;35226;48.606;8.858;2023-04-21T06:26:38;95898.25;;;3.28;100.00
19023;BME280;35226;48.606;8.858;2023-04-21T06:29:04;95886.47;;;3.35;100.00
19023;BME280;35226;48.606;8.858;2023-04-21T06:31:30;95886.53;;;3.31;100.00
19023;BME280;35226;48.606;8.858;2023-04-21T06:33:55;95882.66;;;3.29;100.00
19023;BME280;35226;48.606;8.858;2023-04-21T06:36:21;95879.06;;;3.35;100.00
19023;BME280;35226;48.606;8.858;2023-04-21T06:38:47;95873.56;;;3.39;100.00
19023;BME280;35226;48.606;8.858;2023-04-21T06:41:13;95866.16;;;3.40;100.00
19023;BME280;35226;48.606;8.858;2023-04-21T06:43:38;95867.22;;;3.49;100.00
19023;BME280;35226;48.606;8.858;2023-04-21T06:46:04;95872.19;;;3.58;100.00
19023;BME280;35226;48.606;8.858;2023-04-21T06:48:30;95874.69;;;3.76;100.00
19023;BME280;35226;48.606;8.858;2023-04-21T06:50:56;95882.75;;;3.86;100.00
19023;BME280;35226;48.606;8.858;2023-04-21T06:53:21;95877.59;;;3.92;100.00
19023;BME280;35226;48.606;8.858;2023-04-21T06:55:47;95875.50;;;4.03;100.00
19023;BME280;35226;48.606;8.858;2023-04-21T06:58:13;95877.25;;;4.20;100.00
19023;BME280;35226;48.606;8.858;2023-04-21T07:00:38;95867.28;;;4.33;100.00
19023;BME280;35226;48.606;8.858;2023-04-21T07:03:04;95868.31;;;4.43;100.00
19023;BME280;35226;48.606;8.858;2023-04-21T07:05:30;95875.53;;;4.57;100.00
19023;BME280;35226;48.606;8.858;2023-04-21T07:07:56;95885.00;;;4.75;100.00
19023;BME280;35226;48.606;8.858;2023-04-21T07:10:27;95888.63;;;4.92;100.00
19023;BME280;35226;48.606;8.858;2023-04-21T07:12:54;95892.19;;;5.12;100.00
19023;BME280;35226;48.606;8.858;2023-04-21T07:15:19;95881.88;;;5.20;100.00
19023;BME280;35226;48.606;8.858;2023-04-21T07:17:45;95882.47;;;5.31;100.00
19023;BME280;35226;48.606;8.858;2023-04-21T07:20:11;95881.59;;;5.38;100.00
19023;BME280;35226;48.606;8.858;2023-04-21T07:22:36;95884.56;;;5.47;100.00
19023;BME280;35226;48.606;8.858;2023-04-21T07:25:03;95886.38;;;5.73;100.00
19023;BME280;35226;48.606;8.858;2023-04-21T07:27:32;95879.56;;;5.81;100.00
19023;BME280;35226;48.606;8.858;2023-04-21T07:29:57;95877.88;;;5.87;100.00
19023;BME280;35226;48.606;8.858;2023-04-21T07:32:23;95875.38;;;5.97;100.00
19023;BME280;35226;48.606;8.858;2023-04-21T07:34:48;95873.44;;;6.13;100.00
19023;BME280;35226;48.606;8.858;2023-04-21T07:37:14;95881.88;;;6.22;100.00
19023;BME280;35226;48.606;8.858;2023-04-21T07:39:40;95874.19;;;6.34;100.00
19023;BME280;35226;48.606;8.858;2023-04-21T07:42:06;95873.53;;;6.46;100.00
19023;BME280;35226;48.606;8.858;2023-04-21T07:44:33;95863.16;;;6.53;100.00
19023;BME280;35226;48.606;8.858;2023-04-21T07:46:58;95862.47;;;6.65;100.00
19023;BME280;35226;48.606;8.858;2023-04-21T07:49:24;95858.09;;;6.84;100.00
19023;BME280;35226;48.606;8.858;2023-04-21T07:51:50;95857.84;;;6.62;100.00
19023;BME280;35226;48.606;8.858;2023-04-21T07:54:16;95862.53;;;6.78;100.00
19023;BME280;35226;48.606;8.858;2023-04-21T07:56:41;95856.03;;;7.04;100.00
19023;BME280;35226;48.606;8.858;2023-04-21T07:59:07;95841.69;;;7.13;100.00
19023;BME280;35226;48.606;8.858;2023-04-21T08:01:32;95842.09;;;7.12;100.00
19023;BME280;35226;48.606;8.858;2023-04-21T08:03:58;95842.00;;;7.15;100.00
19023;BME280;35226;48.606;8.858;2023-04-21T08:06:24;95839.16;;;7.19;100.00
19023;BME280;35226;48.606;8.858;2023-04-21T08:08:49;95831.13;;;7.40;100.00
19023;BME280;35226;48.606;8.858;2023-04-21T08:11:15;95829.97;;;7.54;100.00
19023;BME280;35226;48.606;8.858;2023-04-21T08:13:40;95829.22;;;7.54;100.00
19023;BME280;35226;48.606;8.858;2023-04-21T08:16:06;95829.22;;;7.66;100.00
19023;BME280;35226;48.606;8.858;2023-04-21T08:18:32;95829.09;;;7.57;100.00
19023;BME280;35226;48.606;8.858;2023-04-21T08:20:57;95823.81;;;7.50;100.00
19023;BME280;35226;48.606;8.858;2023-04-21T08:23:23;95820.25;;;7.78;100.00
19023;BME280;35226;48.606;8.858;2023-04-21T08:25:48;95816.81;;;7.74;100.00
19023;BME280;35226;48.606;8.858;2023-04-21T08:28:14;95816.75;;;7.91;100.00
19023;BME280;35226;48.606;8.858;2023-04-21T08:30:40;95807.75;;;7.90;100.00
19023;BME280;35226;48.606;8.858;2023-04-21T08:33:06;95818.00;;;8.15;100.00
19023;BME280;35226;48.606;8.858;2023-04-21T08:35:34;95812.94;;;8.13;100.00
19023;BME280;35226;48.606;8.858;2023-04-21T08:38:00;95808.22;;;8.27;100.00
19023;BME280;35226;48.606;8.858;2023-04-21T08:40:32;95812.16;;;8.26;100.00
19023;BME280;35226;48.606;8.858;2023-04-21T08:42:58;95815.94;;;8.44;100.00
19023;BME280;35226;48.606;8.858;2023-04-21T08:45:24;95817.91;;;8.44;100.00
19023;BME280;35226;48.606;8.858;2023-04-21T08:47:50;95803.38;;;8.69;100.00
19023;BME280;35226;48.606;8.858;2023-04-21T08:50:16;95813.72;;;8.77;100.00
19023;BME280;35226;48.606;8.858;2023-04-21T08:52:42;95812.59;;;8.87;100.00
19023;BME280;35226;48.606;8.858;2023-04-21T08:55:08;95809.69;;;9.04;100.00
19023;BME280;35226;48.606;8.858;2023-04-21T08:57:34;95819.13;;;9.15;100.00
19023;BME280;35226;48.606;8.858;2023-04-21T08:59:59;95810.06;;;9.27;100.00
19023;BME280;35226;48.606;8.858;2023-04-21T09:02:25;95810.25;;;9.33;100.00
19023;BME280;35226;48.606;8.858;2023-04-21T09:04:51;95809.47;;;9.33;100.00
19023;BME280;35226;48.606;8.858;2023-04-21T09:09:56;95806.53;;;9.71;100.00
19023;BME280;35226;48.606;8.858;2023-04-21T09:12:22;95804.16;;;9.60;100.00
19023;BME280;35226;48.606;8.858;2023-04-21T09:14:48;95798.84;;;9.87;100.00
19023;BME280;35226;48.606;8.858;2023-04-21T09:17:15;95794.44;;;9.68;100.00
19023;BME280;35226;48.606;8.858;2023-04-21T09:19:42;95796.97;;;10.06;100.00
19023;BME280;35226;48.606;8.858;2023-04-21T09:22:07;95791.34;;;10.19;100.00
19023;BME280;35226;48.606;8.858;2023-04-21T09:24:33;95794.00;;;10.22;100.00
19023;BME280;35226;48.606;8.858;2023-04-21T09:27:02;95788.69;;;10.37;100.00
19023;BME280;35226;48.606;8.858;2023-04-21T09:29:28;95784.19;;;10.30;100.00
19023;BME280;35226;48.606;8.858;2023-04-21T09:31:54;95785.53;;;10.57;100.00
19023;BME280;35226;48.606;8.858;2023-04-21T09:34:23;95777.78;;;10.83;100.00
19023;BME280;35226;48.606;8.858;2023-04-21T09:37:02;95777.94;;;10.97;100.00
19023;BME280;35226;48.606;8.858;2023-04-21T09:39:30;95775.03;;;11.01;100.00
19023;BME280;35226;48.606;8.858;2023-04-21T09:41:56;95763.81;;;10.86;100.00
19023;BME280;35226;48.606;8.858;2023-04-21T09:44:26;95762.94;;;11.35;100.00
19023;BME280;35226;48.606;8.858;2023-04-21T09:47:00;95759.84;;;11.05;100.00
19023;BME280;35226;48.606;8.858;2023-04-21T09:49:30;95758.13;;;11.26;100.00
19023;BME280;35226;48.606;8.858;2023-04-21T09:52:00;95758.44;;;11.74;100.00
19023;BME280;35226;48.606;8.858;2023-04-21T09:54:31;95757.81;;;11.79;100.00
19023;BME280;35226;48.606;8.858;2023-04-21T09:57:02;95762.44;;;11.73;100.00
19023;BME280;35226;48.606;8.858;2023-04-21T09:59:35;95762.69;;;12.02;100.00
19023;BME280;35226;48.606;8.858;2023-04-21T10:02:04;95756.66;;;12.13;100.00
19023;BME280;35226;48.606;8.858;2023-04-21T10:04:30;95748.09;;;12.35;100.00
19023;BME280;35226;48.606;8.858;2023-04-21T10:06:59;95756.50;;;12.49;100.00
19023;BME280;35226;48.606;8.858;2023-04-21T10:09:28;95748.94;;;12.83;100.00
19023;BME280;35226;48.606;8.858;2023-04-21T10:11:55;95749.69;;;12.59;100.00
19023;BME280;35226;48.606;8.858;2023-04-21T10:14:24;95743.94;;;13.20;100.00
19023;BME280;35226;48.606;8.858;2023-04-21T10:17:04;95741.00;;;13.38;100.00
19023;BME280;35226;48.606;8.858;2023-04-21T10:19:30;95744.88;;;13.55;100.00
19023;BME280;35226;48.606;8.858;2023-04-21T10:22:01;95750.88;;;13.54;100.00
19023;BME280;35226;48.606;8.858;2023-04-21T10:24:30;95743.44;;;13.75;100.00
19023;BME280;35226;48.606;8.858;2023-04-21T10:26:56;95747.00;;;13.75;100.00
19023;BME280;35226;48.606;8.858;2023-04-21T10:29:32;95733.59;;;13.88;100.00
19023;BME280;35226;48.606;8.858;2023-04-21T10:32:02;95736.53;;;14.14;100.00
19023;BME280;35226;48.606;8.858;2023-04-21T10:34:35;95733.28;;;14.45;100.00
19023;BME280;35226;48.606;8.858;2023-04-21T10:39:31;95736.97;;;14.92;100.00
19023;BME280;35226;48.606;8.858;2023-04-21T10:44:42;95722.91;;;15.01;100.00
19023;BME280;35226;48.606;8.858;2023-04-21T10:47:08;95733.22;;;15.35;100.00
19023;BME280;35226;48.606;8.858;2023-04-21T10:49:38;95727.34;;;15.79;100.00
19023;BME280;35226;48.606;8.858;2023-04-21T10:52:05;95723.47;;;15.97;100.00
19023;BME280;35226;48.606;8.858;2023-04-21T10:54:36;95719.16;;;16.27;100.00
19023;BME280;35226;48.606;8.858;2023-04-21T10:57:05;95718.09;;;16.56;100.00
19023;BME280;35226;48.606;8.858;2023-04-21T10:59:31;95716.28;;;16.48;100.00
19023;BME280;35226;48.606;8.858;2023-04-21T11:01:58;95721.38;;;16.18;100.00
19023;BME280;35226;48.606;8.858;2023-04-21T11:04:24;95719.53;;;16.41;100.00
19023;BME280;35226;48.606;8.858;2023-04-21T11:07:17;95716.19;;;17.16;100.00
19023;BME280;35226;48.606;8.858;2023-04-21T11:09:45;95708.69;;;17.56;100.00
19023;BME280;35226;48.606;8.858;2023-04-21T11:12:13;95709.38;;;17.28;100.00
19023;BME280;35226;48.606;8.858;2023-04-21T11:14:40;95708.78;;;17.02;100.00
19023;BME280;35226;48.606;8.858;2023-04-21T11:17:14;95698.75;;;17.44;100.00
19023;BME280;35226;48.606;8.858;2023-04-21T11:19:40;95696.09;;;17.88;100.00
19023;BME280;35226;48.606;8.858;2023-04-21T11:22:06;95695.34;;;17.99;100.00
19023;BME280;35226;48.606;8.858;2023-04-21T11:24:32;95694.56;;;17.98;100.00
19023;BME280;35226;48.606;8.858;2023-04-21T11:26:57;95689.75;;;18.38;98.61
19023;BME280;35226;48.606;8.858;2023-04-21T11:29:25;95686.19;;;18.60;94.74
19023;BME280;35226;48.606;8.858;2023-04-21T11:31:50;95686.44;;;18.51;94.48
19023;BME280;35226;48.606;8.858;2023-04-21T11:34:21;95682.38;;;18.40;92.50
19023;BME280;35226;48.606;8.858;2023-04-21T11:36:49;95682.75;;;19.06;95.91
19023;BME280;35226;48.606;8.858;2023-04-21T11:39:16;95677.97;;;18.84;96.68
19023;BME280;35226;48.606;8.858;2023-04-21T11:41:48;95678.00;;;18.78;100.00
19023;BME280;35226;48.606;8.858;2023-04-21T11:44:37;95682.59;;;18.76;100.00
19023;BME280;35226;48.606;8.858;2023-04-21T11:47:14;95682.03;;;18.83;95.36
19023;BME280;35226;48.606;8.858;2023-04-21T11:49:48;95682.88;;;19.30;91.55
19023;BME280;35226;48.606;8.858;2023-04-21T11:52:28;95672.34;;;19.58;81.73
19023;BME280;35226;48.606;8.858;2023-04-21T11:55:00;95663.84;;;20.41;81.82
19023;BME280;35226;48.606;8.858;2023-04-21T11:57:27;95663.25;;;20.48;73.89
19023;BME280;35226;48.606;8.858;2023-04-21T11:59:53;95662.09;;;20.62;87.28
19023;BME280;35226;48.606;8.858;2023-04-21T12:02:29;95655.44;;;20.65;71.16
19023;BME280;35226;48.606;8.858;2023-04-21T12:05:07;95657.13;;;20.49;73.89
19023;BME280;35226;48.606;8.858;2023-04-21T12:07:36;95658.50;;;20.37;81.96
19023;BME280;35226;48.606;8.858;2023-04-21T12:10:11;95657.50;;;21.08;69.57
19023;BME280;35226;48.606;8.858;2023-04-21T12:12:38;95661.00;;;20.46;75.34
19023;BME280;35226;48.606;8.858;2023-04-21T12:15:05;95656.41;;;21.35;65.22
19023;BME280;35226;48.606;8.858;2023-04-21T12:17:38;95658.41;;;20.73;73.14
19023;BME280;35226;48.606;8.858;2023-04-21T12:20:07;95657.28;;;20.57;80.40
19023;BME280;35226;48.606;8.858;2023-04-21T12:22:33;95654.31;;;21.17;70.33
19023;BME280;35226;48.606;8.858;2023-04-21T12:24:59;95646.41;;;21.58;74.09
19023;BME280;35226;48.606;8.858;2023-04-21T12:27:28;95651.78;;;21.56;70.53
19023;BME280;35226;48.606;8.858;2023-04-21T12:29:53;95649.50;;;21.92;60.23
19023;BME280;35226;48.606;8.858;2023-04-21T12:32:20;95644.34;;;21.77;63.56
19023;BME280;35226;48.606;8.858;2023-04-21T12:34:45;95650.66;;;22.74;52.11
19023;BME280;35226;48.606;8.858;2023-04-21T12:37:11;95649.31;;;22.35;61.94
19023;BME280;35226;48.606;8.858;2023-04-21T12:39:36;95646.16;;;22.84;49.20
19023;BME280;35226;48.606;8.858;2023-04-21T12:42:02;95646.03;;;23.16;53.86
19023;BME280;35226;48.606;8.858;2023-04-21T12:44:27;95641.97;;;22.45;53.43
19023;BME280;35226;48.606;8.858;2023-04-21T12:46:53;95642.88;;;23.33;47.42
19023;BME280;35226;48.606;8.858;2023-04-21T12:49:19;95641.94;;;23.04;47.98
19023;BME280;35226;48.606;8.858;2023-04-21T12:51:44;95648.63;;;22.74;52.35
19023;BME280;35226;48.606;8.858;2023-04-21T12:54:11;95647.72;;;22.40;63.03
19023;BME280;35226;48.606;8.858;2023-04-21T12:56:37;95645.38;;;22.25;63.02
19023;BME280;35226;48.606;8.858;2023-04-21T12:59:08;95648.31;;;22.20;60.52
19023;BME280;35226;48.606;8.858;2023-04-21T13:01:35;95647.91;;;21.59;57.98
19023;BME280;35226;48.606;8.858;2023-04-21T13:04:04;95644.19;;;22.21;60.12